createdAt,value
2016-09-11T00:02:45.045Z,1008.96
2016-09-11T00:07:41.512Z,1008.97
2016-09-11T00:12:38.123Z,1008.99
2016-09-11T00:17:34.773Z,1009.07
2016-09-11T00:22:31.225Z,1009.02
2016-09-11T00:27:27.943Z,1008.90
2016-09-11T00:32:24.540Z,1008.88
2016-09-11T00:37:21.583Z,1008.94
2016-09-11T00:42:18.113Z,1008.92
2016-09-11T00:47:17.501Z,1008.88
2016-09-11T00:52:13.455Z,1008.83
2016-09-11T00:57:10.040Z,1008.84
2016-09-11T01:02:06.728Z,1008.97
2016-09-11T01:07:03.256Z,1008.90
2016-09-11T01:12:00.775Z,1008.96
2016-09-11T01:16:57.046Z,1008.93
2016-09-11T01:21:53.710Z,1008.93
2016-09-11T01:26:50.317Z,1008.93
2016-09-11T01:31:46.993Z,1008.99
2016-09-11T01:36:43.540Z,1008.98
2016-09-11T01:41:39.839Z,1008.88
2016-09-11T01:46:36.514Z,1008.89
2016-09-11T01:51:33.121Z,1008.91
2016-09-11T01:56:29.819Z,1008.92
2016-09-11T02:01:26.464Z,1008.98
2016-09-11T02:06:23.102Z,1008.97
2016-09-11T02:11:19.679Z,1008.94
2016-09-11T02:16:16.479Z,1009.03
2016-09-11T02:21:15.462Z,1008.98
2016-09-11T02:26:11.456Z,1009.03
2016-09-11T02:31:08.113Z,1009.08
2016-09-11T02:36:04.673Z,1009.09
2016-09-11T02:41:01.290Z,1009.11
2016-09-11T02:45:58.359Z,1009.12
2016-09-11T02:50:54.794Z,1009.15
2016-09-11T02:55:51.691Z,1009.12
2016-09-11T03:00:48.347Z,1009.14
2016-09-11T03:05:46.432Z,1009.20
2016-09-11T03:10:43.327Z,1009.13
2016-09-11T03:15:41.438Z,1009.13
2016-09-11T03:20:37.666Z,1009.18
2016-09-11T03:25:34.225Z,1009.17
2016-09-11T03:30:30.749Z,1009.21
2016-09-11T03:35:27.482Z,1009.15
2016-09-11T03:40:24.263Z,1009.11
2016-09-11T03:45:21.092Z,1009.23
2016-09-11T03:50:17.680Z,1009.24
2016-09-11T03:55:14.672Z,1009.18
2016-09-11T04:00:11.305Z,1009.23
2016-09-11T04:05:07.793Z,1009.15
2016-09-11T04:10:04.673Z,1009.21
2016-09-11T04:15:01.520Z,1009.18
2016-09-11T04:19:58.134Z,1009.19
2016-09-11T04:25:06.312Z,1009.15
2016-09-11T04:29:58.700Z,1009.28
2016-09-11T04:34:55.218Z,1009.28
2016-09-11T04:39:51.867Z,1009.35
2016-09-11T04:44:48.646Z,1009.46
2016-09-11T04:49:45.490Z,1009.44
2016-09-11T04:54:43.119Z,1009.44
2016-09-11T04:59:39.554Z,1009.52
2016-09-11T05:04:36.157Z,1009.51
2016-09-11T05:09:32.907Z,1009.50
2016-09-11T05:14:29.954Z,1009.54
2016-09-11T05:19:27.282Z,1009.62
2016-09-11T05:24:23.657Z,1009.63
2016-09-11T05:29:20.351Z,1009.71
2016-09-11T05:34:17.660Z,1009.76
2016-09-11T05:39:14.314Z,1009.86
2016-09-11T05:44:10.905Z,1009.91
2016-09-11T05:49:07.529Z,1010.02
2016-09-11T05:54:04.130Z,1010.14
2016-09-11T05:59:01.102Z,1010.05
2016-09-11T06:03:57.761Z,1010.23
2016-09-11T06:08:54.500Z,1010.16
2016-09-11T06:13:51.682Z,1010.20
2016-09-11T06:18:48.321Z,1010.27
2016-09-11T06:23:45.237Z,1010.30
2016-09-11T06:28:41.824Z,1010.44
2016-09-11T06:33:38.944Z,1010.38
2016-09-11T06:38:36.065Z,1010.55
2016-09-11T06:43:35.718Z,1010.59
2016-09-11T06:48:32.050Z,1010.68
2016-09-11T06:53:31.526Z,1010.64
2016-09-11T06:58:27.708Z,1010.69
2016-09-11T07:03:24.599Z,1010.77
2016-09-11T07:08:21.232Z,1010.80
2016-09-11T07:13:17.980Z,1010.80
2016-09-11T07:18:14.441Z,1010.83
2016-09-11T07:23:11.974Z,1010.76
2016-09-11T07:28:08.728Z,1010.83
2016-09-11T07:33:06.357Z,1011.02
2016-09-11T07:38:04.760Z,1011.08
2016-09-11T07:43:01.455Z,1011.17
2016-09-11T07:47:58.269Z,1011.18
2016-09-11T07:52:55.585Z,1011.30
2016-09-11T07:57:52.405Z,1011.36
2016-09-11T08:02:49.060Z,1011.47
2016-09-11T08:07:46.273Z,1011.48
2016-09-11T08:12:43.788Z,1011.60
2016-09-11T08:17:40.649Z,1011.58
2016-09-11T08:22:37.773Z,1011.57
2016-09-11T08:27:34.720Z,1011.52
2016-09-11T08:32:31.529Z,1011.59
2016-09-11T08:37:28.243Z,1011.53
2016-09-11T08:42:28.004Z,1011.61
2016-09-11T08:47:24.360Z,1011.72
2016-09-11T08:52:20.915Z,1011.78
2016-09-11T08:57:17.543Z,1011.91
2016-09-11T09:02:14.221Z,1011.87
2016-09-11T09:07:10.607Z,1011.89
2016-09-11T09:12:07.107Z,1011.94
2016-09-11T09:17:06.229Z,1011.99
2016-09-11T09:22:02.187Z,1012.03
2016-09-11T09:26:58.970Z,1012.03
2016-09-11T09:31:55.595Z,1011.99
2016-09-11T09:36:55.204Z,1012.01
2016-09-11T09:41:51.457Z,1012.01
2016-09-11T09:46:48.069Z,1012.02
2016-09-11T09:51:45.409Z,1012.03
2016-09-11T09:56:42.150Z,1012.10
2016-09-11T10:01:39.487Z,1012.07
2016-09-11T10:06:36.144Z,1012.16
2016-09-11T10:11:33.280Z,1012.08
2016-09-11T10:16:30.016Z,1012.14
2016-09-11T10:21:26.686Z,1012.21
2016-09-11T10:26:23.325Z,1012.19
2016-09-11T10:31:20.313Z,1012.19
2016-09-11T10:36:16.919Z,1012.20
2016-09-11T10:41:13.536Z,1012.24
2016-09-11T10:46:10.505Z,1012.22
2016-09-11T10:51:06.862Z,1012.23
2016-09-11T10:56:03.560Z,1012.26
2016-09-11T11:01:00.576Z,1012.22
2016-09-11T11:05:57.111Z,1012.22
2016-09-11T11:10:53.841Z,1012.13
2016-09-11T11:15:50.516Z,1012.23
2016-09-11T11:20:47.148Z,1012.22
2016-09-11T11:25:43.909Z,1012.21
2016-09-11T11:30:40.763Z,1012.25
2016-09-11T11:35:37.432Z,1012.28
2016-09-11T11:40:34.107Z,1012.16
2016-09-11T11:45:30.829Z,1012.13
2016-09-11T11:50:27.550Z,1012.18
2016-09-11T11:55:24.128Z,1012.14
2016-09-11T12:00:20.759Z,1012.03
2016-09-11T12:05:17.322Z,1012.09
2016-09-11T12:10:13.897Z,1012.09
2016-09-11T12:15:10.868Z,1012.02
2016-09-11T12:20:07.530Z,1011.97
2016-09-11T12:25:04.379Z,1011.98
2016-09-11T12:30:01.385Z,1011.96
2016-09-11T12:34:58.212Z,1012.00
2016-09-11T12:39:54.876Z,1012.00
2016-09-11T12:44:51.477Z,1011.93
2016-09-11T12:49:48.121Z,1011.86
2016-09-11T12:54:44.981Z,1011.85
2016-09-11T12:59:41.607Z,1011.88
2016-09-11T13:04:38.440Z,1011.89
2016-09-11T13:09:35.120Z,1011.80
2016-09-11T13:14:31.824Z,1011.87
2016-09-11T13:19:28.744Z,1011.90
2016-09-11T13:24:25.525Z,1011.90
2016-09-11T13:29:22.284Z,1011.85
2016-09-11T13:34:22.350Z,1011.85
2016-09-11T13:39:18.726Z,1011.80
2016-09-11T13:44:15.216Z,1011.76
2016-09-11T13:49:11.904Z,1011.74
2016-09-11T13:54:08.705Z,1011.76
2016-09-11T13:59:07.615Z,1011.72
2016-09-11T14:04:04.035Z,1011.77
2016-09-11T14:09:00.769Z,1011.74
2016-09-11T14:13:57.379Z,1011.68
2016-09-11T14:18:54.052Z,1011.65
2016-09-11T14:23:50.754Z,1011.67
2016-09-11T14:28:47.386Z,1011.75
2016-09-11T14:33:46.291Z,1011.68
2016-09-11T14:38:42.471Z,1011.72
2016-09-11T14:43:39.301Z,1011.74
2016-09-11T14:48:36.249Z,1011.64
2016-09-11T14:53:33.415Z,1011.59
2016-09-11T14:58:30.210Z,1011.47
2016-09-11T15:03:27.351Z,1011.43
2016-09-11T15:08:25.482Z,1011.44
2016-09-11T15:13:22.404Z,1011.42
2016-09-11T15:18:19.124Z,1011.46
2016-09-11T15:23:15.899Z,1011.46
2016-09-11T15:28:12.618Z,1011.46
2016-09-11T15:33:11.858Z,1011.52
2016-09-11T15:38:07.893Z,1011.46
2016-09-11T15:43:05.000Z,1011.43
2016-09-11T15:48:01.698Z,1011.42
2016-09-11T15:53:01.399Z,1011.34
2016-09-11T15:57:57.343Z,1011.37
2016-09-11T16:02:53.925Z,1011.36
2016-09-11T16:07:50.561Z,1011.32
2016-09-11T16:12:47.016Z,1011.34
2016-09-11T16:17:43.613Z,1011.30
2016-09-11T16:22:40.094Z,1011.30
2016-09-11T16:27:36.903Z,1011.36
2016-09-11T16:32:33.577Z,1011.32
2016-09-11T16:37:30.129Z,1011.34
2016-09-11T16:42:26.838Z,1011.40
2016-09-11T16:47:23.388Z,1011.38
2016-09-11T16:52:20.744Z,1011.40
2016-09-11T16:57:17.456Z,1011.40
2016-09-11T17:02:14.478Z,1011.27
2016-09-11T17:07:11.321Z,1011.28
2016-09-11T17:12:08.324Z,1011.36
2016-09-11T17:17:07.451Z,1011.35
2016-09-11T17:22:03.350Z,1011.32
2016-09-11T17:27:00.278Z,1011.36
2016-09-11T17:31:59.259Z,1011.40
2016-09-11T17:36:55.651Z,1011.37
2016-09-11T17:41:52.265Z,1011.39
2016-09-11T17:46:48.788Z,1011.43
2016-09-11T17:51:45.332Z,1011.46
2016-09-11T17:56:42.130Z,1011.46
2016-09-11T18:01:38.660Z,1011.51
2016-09-11T18:06:35.533Z,1011.48
2016-09-11T18:11:32.546Z,1011.58
2016-09-11T18:16:29.459Z,1011.71
2016-09-11T18:21:26.072Z,1011.67
2016-09-11T18:26:22.755Z,1011.69
2016-09-11T18:31:19.343Z,1011.68
2016-09-11T18:36:15.939Z,1011.62
2016-09-11T18:41:12.523Z,1011.67
2016-09-11T18:46:09.176Z,1011.71
2016-09-11T18:51:06.182Z,1011.76
2016-09-11T18:56:02.812Z,1011.82
2016-09-11T19:00:59.542Z,1011.85
2016-09-11T19:05:56.106Z,1011.84
2016-09-11T19:10:52.692Z,1011.91
2016-09-11T19:15:49.845Z,1011.95
2016-09-11T19:20:46.825Z,1011.96
2016-09-11T19:25:43.537Z,1011.98
2016-09-11T19:30:40.243Z,1011.99
2016-09-11T19:35:36.917Z,1011.98
2016-09-11T19:40:33.573Z,1012.03
2016-09-11T19:45:30.533Z,1012.04
2016-09-11T19:50:27.229Z,1012.10
2016-09-11T19:55:23.909Z,1012.17
2016-09-11T20:00:20.514Z,1012.12
2016-09-11T20:05:17.119Z,1012.11
2016-09-11T20:10:13.696Z,1012.19
2016-09-11T20:15:10.218Z,1012.23
2016-09-11T20:20:06.910Z,1012.17
2016-09-11T20:25:03.479Z,1012.15
2016-09-11T20:30:00.307Z,1012.16
2016-09-11T20:34:57.285Z,1012.05
2016-09-11T20:39:53.863Z,1012.12
2016-09-11T20:44:50.523Z,1012.12
2016-09-11T20:49:47.075Z,1012.08
2016-09-11T20:54:43.927Z,1012.08
2016-09-11T20:59:40.732Z,1012.13
2016-09-11T21:04:37.270Z,1012.02
2016-09-11T21:09:33.792Z,1012.04
2016-09-11T21:14:30.641Z,1012.07
2016-09-11T21:19:27.308Z,1012.02
2016-09-11T21:24:23.877Z,1012.09
2016-09-11T21:29:20.473Z,1012.09
2016-09-11T21:34:18.736Z,1012.12
2016-09-11T21:39:14.981Z,1012.06
2016-09-11T21:44:12.070Z,1012.08
2016-09-11T21:49:08.756Z,1012.03
2016-09-11T21:54:05.448Z,1012.04
2016-09-11T21:59:02.271Z,1011.98
2016-09-11T22:03:58.687Z,1012.02
2016-09-11T22:08:55.078Z,1011.97
2016-09-11T22:13:52.059Z,1012.03
2016-09-11T22:18:48.683Z,1012.03
2016-09-11T22:23:45.190Z,1012.02
2016-09-11T22:28:41.834Z,1012.06
2016-09-11T22:33:39.501Z,1012.06
2016-09-11T22:38:36.392Z,1012.00
2016-09-11T22:43:32.811Z,1012.00
2016-09-11T22:48:29.314Z,1012.01
2016-09-11T22:53:25.985Z,1011.88
2016-09-11T22:58:22.482Z,1011.86
2016-09-11T23:03:19.100Z,1011.89
2016-09-11T23:08:15.655Z,1011.87
2016-09-11T23:13:12.540Z,1011.88
2016-09-11T23:18:09.044Z,1011.87
2016-09-11T23:23:05.554Z,1011.99
2016-09-11T23:28:02.275Z,1011.87
2016-09-11T23:32:58.851Z,1011.84
2016-09-11T23:37:55.530Z,1011.84
2016-09-11T23:42:52.537Z,1011.90
2016-09-11T23:47:49.116Z,1011.84
2016-09-11T23:52:45.987Z,1011.80
2016-09-11T23:57:42.596Z,1011.72
